Time;durP1;ratioP1;P1;durP2;ratioP2;P2;SDS_P1;SDS_P2;PMS_P1;PMS_P2;Temp;Humidity;BMP_temperature;BMP_pressure;BME280_temperature;BME280_humidity;BME280_pressure;Samples;Min_cycle;Max_cycle;Signal;HPM_P1;HPM_P2
2023/03/15 00:00:46;;;;;;;8.02;2.13;;;;;;;;;;5053092;28;20045;-86
2023/03/15 00:03:13;;;;;;;13.10;2.47;;;;;;;;;;5035728;28;20056;-85
2023/03/15 00:05:44;;;;;;;13.35;2.50;;;;;;;;;;5053232;28;20075;-86
2023/03/15 00:08:12;;;;;;;10.55;2.67;;;;;;;;;;5035556;28;20060;-86
2023/03/15 00:10:40;;;;;;;15.10;2.85;;;;;;;;;;5035710;28;20045;-86
2023/03/15 00:13:08;;;;;;;8.45;2.20;;;;;;;;;;5053206;28;20057;-85
2023/03/15 00:15:35;;;;;;;15.82;2.22;;;;;;;;;;5053017;28;20055;-86
2023/03/15 00:18:02;;;;;;;14.98;2.55;;;;;;;;;;5053217;28;20128;-86
2023/03/15 00:20:30;;;;;;;6.10;2.08;;;;;;;;;;5035428;28;20052;-86
2023/03/15 00:22:57;;;;;;;12.05;2.30;;;;;;;;;;5035522;28;20047;-85
2023/03/15 00:25:24;;;;;;;13.20;2.50;;;;;;;;;;5052846;28;20061;-86
2023/03/15 00:27:51;;;;;;;9.70;2.50;;;;;;;;;;5052116;28;20057;-86
2023/03/15 00:30:18;;;;;;;16.83;2.40;;;;;;;;;;5053113;28;20052;-86
2023/03/15 00:32:45;;;;;;;13.30;2.17;;;;;;;;;;5052924;28;20049;-86
2023/03/15 00:35:13;;;;;;;14.30;3.35;;;;;;;;;;5035474;28;20051;-86
2023/03/15 00:37:40;;;;;;;9.00;2.05;;;;;;;;;;5052706;28;20056;-86
2023/03/15 00:40:08;;;;;;;13.63;2.70;;;;;;;;;;5035269;28;20447;-85
2023/03/15 00:42:35;;;;;;;14.45;2.38;;;;;;;;;;5035501;28;20048;-85
2023/03/15 00:45:02;;;;;;;7.65;2.78;;;;;;;;;;5054785;28;20060;-86
2023/03/15 00:47:30;;;;;;;18.42;2.60;;;;;;;;;;5039357;28;20057;-86
2023/03/15 00:49:57;;;;;;;9.43;1.80;;;;;;;;;;5039273;28;20456;-86
2023/03/15 00:52:24;;;;;;;21.13;2.38;;;;;;;;;;5039281;28;20053;-86
2023/03/15 00:54:52;;;;;;;18.33;2.70;;;;;;;;;;5039749;28;20469;-87
2023/03/15 00:57:19;;;;;;;8.55;2.10;;;;;;;;;;5050994;28;20076;-86
2023/03/15 00:59:49;;;;;;;12.90;2.25;;;;;;;;;;5040083;28;20467;-86
2023/03/15 01:02:16;;;;;;;16.00;2.70;;;;;;;;;;5039071;28;20417;-86
2023/03/15 01:04:44;;;;;;;9.80;2.10;;;;;;;;;;5038913;28;20041;-86
2023/03/15 01:07:11;;;;;;;15.35;2.53;;;;;;;;;;5039036;28;20564;-86
2023/03/15 01:09:39;;;;;;;11.25;2.90;;;;;;;;;;5056365;28;20132;-86
2023/03/15 01:12:07;;;;;;;8.57;2.20;;;;;;;;;;5038940;28;20077;-86
2023/03/15 01:14:36;;;;;;;10.15;2.45;;;;;;;;;;5056055;28;20041;-86
2023/03/15 01:17:03;;;;;;;12.00;2.22;;;;;;;;;;5038400;28;20499;-86
2023/03/15 01:19:30;;;;;;;14.43;2.55;;;;;;;;;;5038435;28;20485;-86
2023/03/15 01:21:57;;;;;;;15.57;2.55;;;;;;;;;;5038474;28;20473;-86
2023/03/15 01:24:24;;;;;;;12.07;2.40;;;;;;;;;;5038571;28;20052;-86
2023/03/15 01:26:51;;;;;;;13.75;2.63;;;;;;;;;;5038446;28;20063;-86
2023/03/15 01:29:19;;;;;;;11.27;2.35;;;;;;;;;;5055948;28;20053;-86
2023/03/15 01:31:46;;;;;;;13.13;2.03;;;;;;;;;;5055936;28;20059;-86
2023/03/15 01:34:13;;;;;;;9.50;2.30;;;;;;;;;;5038188;28;20041;-86
2023/03/15 01:36:40;;;;;;;16.33;3.05;;;;;;;;;;5038089;28;20052;-87
2023/03/15 01:39:07;;;;;;;14.68;2.30;;;;;;;;;;5038088;28;20068;-86
2023/03/15 01:41:35;;;;;;;9.35;2.63;;;;;;;;;;5038198;28;20056;-86
2023/03/15 01:44:02;;;;;;;11.23;2.63;;;;;;;;;;5055516;28;20087;-86
2023/03/15 01:46:33;;;;;;;11.65;3.25;;;;;;;;;;5037841;28;20041;-86
2023/03/15 01:49:03;;;;;;;15.38;2.47;;;;;;;;;;5038220;28;20067;-86
2023/03/15 01:51:30;;;;;;;14.27;2.42;;;;;;;;;;5055589;28;20465;-85
2023/03/15 01:54:09;;;;;;;13.85;2.67;;;;;;;;;;5055641;28;20048;-86
2023/03/15 01:56:38;;;;;;;10.27;2.28;;;;;;;;;;5036540;28;20496;-86
2023/03/15 01:59:07;;;;;;;6.50;2.10;;;;;;;;;;5055456;28;20053;-87
2023/03/15 02:01:35;;;;;;;8.48;2.17;;;;;;;;;;5037618;28;20135;-86
2023/03/15 02:04:09;;;;;;;18.92;2.53;;;;;;;;;;5055339;28;20056;-86
2023/03/15 02:06:36;;;;;;;10.48;2.70;;;;;;;;;;5054040;28;20060;-86
2023/03/15 02:09:13;;;;;;;10.18;2.10;;;;;;;;;;5037999;28;20059;-85
2023/03/15 02:11:40;;;;;;;6.40;2.53;;;;;;;;;;5055158;28;20045;-86
2023/03/15 02:14:09;;;;;;;11.57;2.10;;;;;;;;;;5037903;28;20508;-86
2023/03/15 02:16:38;;;;;;;11.00;2.25;;;;;;;;;;5037529;28;20068;-85
2023/03/15 02:19:11;;;;;;;16.05;2.55;;;;;;;;;;5037550;28;20053;-86
2023/03/15 02:21:48;;;;;;;11.63;2.50;;;;;;;;;;5037572;28;20059;-86
2023/03/15 02:24:36;;;;;;;14.20;2.50;;;;;;;;;;5037608;28;20055;-86
2023/03/15 02:27:04;;;;;;;7.82;2.60;;;;;;;;;;5037246;28;20475;-86
2023/03/15 02:29:31;;;;;;;16.15;2.35;;;;;;;;;;5036839;28;20052;-86
2023/03/15 02:31:59;;;;;;;12.98;2.60;;;;;;;;;;5037431;28;20044;-86
2023/03/15 02:34:26;;;;;;;8.98;1.90;;;;;;;;;;5037208;28;20615;-86
2023/03/15 02:36:54;;;;;;;9.63;2.50;;;;;;;;;;5037316;28;20049;-86
2023/03/15 02:39:22;;;;;;;10.02;2.00;;;;;;;;;;5037311;28;20492;-86
2023/03/15 02:41:54;;;;;;;18.95;2.53;;;;;;;;;;5037370;28;20049;-86
2023/03/15 02:44:30;;;;;;;10.85;2.08;;;;;;;;;;5037294;28;20076;-87
2023/03/15 02:47:00;;;;;;;8.98;2.08;;;;;;;;;;5037082;28;20057;-86
2023/03/15 02:49:29;;;;;;;10.90;1.88;;;;;;;;;;5037184;28;20119;-86
2023/03/15 02:51:56;;;;;;;9.65;2.20;;;;;;;;;;5037072;28;20107;-87
2023/03/15 02:54:23;;;;;;;13.20;2.05;;;;;;;;;;5037015;28;20049;-87
2023/03/15 02:56:50;;;;;;;10.68;1.75;;;;;;;;;;5037221;28;20052;-87
2023/03/15 02:59:18;;;;;;;4.07;1.60;;;;;;;;;;5037087;28;20056;-87
2023/03/15 03:01:45;;;;;;;9.23;1.75;;;;;;;;;;5037082;28;20052;-87
2023/03/15 03:04:12;;;;;;;12.20;2.38;;;;;;;;;;5054293;28;20060;-87
2023/03/15 03:06:42;;;;;;;7.63;1.67;;;;;;;;;;5036649;28;20052;-87
2023/03/15 03:09:10;;;;;;;6.00;1.73;;;;;;;;;;5036619;28;20083;-87
2023/03/15 03:11:37;;;;;;;8.13;2.22;;;;;;;;;;5036615;28;20481;-87
2023/03/15 03:14:05;;;;;;;14.57;2.17;;;;;;;;;;5036530;28;20080;-87
2023/03/15 03:16:32;;;;;;;12.20;1.75;;;;;;;;;;5036322;28;20049;-88
2023/03/15 03:19:00;;;;;;;14.20;2.45;;;;;;;;;;5037068;28;20044;-88
2023/03/15 03:21:27;;;;;;;5.82;2.10;;;;;;;;;;5036732;28;20127;-87
2023/03/15 03:23:54;;;;;;;12.75;2.10;;;;;;;;;;5040482;28;20092;-88
2023/03/15 03:26:26;;;;;;;9.85;2.20;;;;;;;;;;5052004;28;20085;-88
2023/03/15 03:28:55;;;;;;;6.38;1.95;;;;;;;;;;5054003;28;20059;-88
2023/03/15 03:31:23;;;;;;;6.97;2.33;;;;;;;;;;5036589;28;20045;-88
2023/03/15 03:33:51;;;;;;;9.73;2.50;;;;;;;;;;5036353;28;20049;-89
2023/03/15 03:36:18;;;;;;;17.70;2.85;;;;;;;;;;5035671;28;20049;-88
2023/03/15 03:38:46;;;;;;;12.18;3.22;;;;;;;;;;5053167;28;20477;-88
2023/03/15 03:41:14;;;;;;;7.78;3.45;;;;;;;;;;5053660;28;20091;-88
2023/03/15 03:43:41;;;;;;;9.35;2.72;;;;;;;;;;5036038;28;20075;-88
2023/03/15 03:46:09;;;;;;;11.98;3.25;;;;;;;;;;5035973;28;20163;-88
2023/03/15 03:48:36;;;;;;;8.07;2.60;;;;;;;;;;5036157;28;20068;-88
2023/03/15 03:51:04;;;;;;;6.53;1.83;;;;;;;;;;5036014;28;20041;-88
2023/03/15 03:53:31;;;;;;;5.20;1.80;;;;;;;;;;5035932;28;20063;-88
2023/03/15 03:55:58;;;;;;;8.45;2.65;;;;;;;;;;5036124;28;20068;-88
2023/03/15 03:58:25;;;;;;;8.80;2.58;;;;;;;;;;5035900;28;20049;-88
2023/03/15 04:00:53;;;;;;;5.85;2.17;;;;;;;;;;5036030;28;20048;-88
2023/03/15 04:03:25;;;;;;;7.60;2.33;;;;;;;;;;5036225;28;20449;-88
2023/03/15 04:05:54;;;;;;;7.03;2.20;;;;;;;;;;5053415;28;20045;-89
2023/03/15 04:08:22;;;;;;;7.13;2.58;;;;;;;;;;5035999;28;20081;-88
2023/03/15 04:10:50;;;;;;;6.85;2.72;;;;;;;;;;5053028;28;20049;-89
2023/03/15 04:13:18;;;;;;;9.57;2.08;;;;;;;;;;5035652;28;20568;-88
2023/03/15 04:15:46;;;;;;;9.85;2.53;;;;;;;;;;5035902;28;20085;-89
2023/03/15 04:18:13;;;;;;;4.45;1.92;;;;;;;;;;5035903;28;20084;-88
2023/03/15 04:20:47;;;;;;;8.55;2.30;;;;;;;;;;5038687;28;20045;-89
2023/03/15 04:23:17;;;;;;;7.70;2.55;;;;;;;;;;5040138;28;20056;-89
2023/03/15 04:25:49;;;;;;;5.18;2.30;;;;;;;;;;5039763;28;20491;-88
2023/03/15 04:28:17;;;;;;;9.00;2.28;;;;;;;;;;5039055;28;20057;-89
2023/03/15 04:30:45;;;;;;;4.72;2.40;;;;;;;;;;5039943;28;20049;-89
2023/03/15 04:33:12;;;;;;;5.88;2.00;;;;;;;;;;5039634;28;20060;-89
2023/03/15 04:35:41;;;;;;;10.30;2.83;;;;;;;;;;5039596;28;20063;-88
2023/03/15 04:38:08;;;;;;;6.78;2.00;;;;;;;;;;5050076;28;20072;-89
2023/03/15 04:40:36;;;;;;;8.63;2.20;;;;;;;;;;5047173;28;20131;-87
2023/03/15 04:43:04;;;;;;;7.93;2.80;;;;;;;;;;5039645;28;20059;-88
2023/03/15 04:45:32;;;;;;;9.10;2.88;;;;;;;;;;5039433;28;20049;-89
2023/03/15 04:48:00;;;;;;;7.60;2.75;;;;;;;;;;5056860;28;20052;-88
2023/03/15 04:50:28;;;;;;;10.85;3.22;;;;;;;;;;5039272;28;20560;-88
2023/03/15 04:52:58;;;;;;;19.48;4.65;;;;;;;;;;5039632;28;20484;-89
2023/03/15 04:55:25;;;;;;;14.93;4.20;;;;;;;;;;5038904;28;20052;-89
2023/03/15 04:57:54;;;;;;;11.73;4.88;;;;;;;;;;5038920;28;20568;-89
2023/03/15 05:00:21;;;;;;;14.75;4.55;;;;;;;;;;5038847;28;20048;-88
2023/03/15 05:02:53;;;;;;;10.68;4.20;;;;;;;;;;5039217;28;20080;-89
2023/03/15 05:05:24;;;;;;;19.20;4.25;;;;;;;;;;5039021;28;20131;-89
2023/03/15 05:07:52;;;;;;;5.07;3.22;;;;;;;;;;5056369;28;20057;-90
2023/03/15 05:10:20;;;;;;;14.15;5.57;;;;;;;;;;5038509;28;20111;-89
2023/03/15 05:12:47;;;;;;;24.08;5.82;;;;;;;;;;5039127;28;20087;-89
2023/03/15 05:15:14;;;;;;;10.55;5.22;;;;;;;;;;5038936;28;20076;-90
2023/03/15 05:17:45;;;;;;;17.05;5.60;;;;;;;;;;5039158;28;20468;-90
2023/03/15 05:20:13;;;;;;;19.60;8.07;;;;;;;;;;5038795;28;20045;-89
2023/03/15 05:22:40;;;;;;;17.00;6.95;;;;;;;;;;5038828;28;20051;-89
2023/03/15 05:25:08;;;;;;;17.88;6.07;;;;;;;;;;5039292;28;20057;-89
2023/03/15 05:27:36;;;;;;;18.70;4.75;;;;;;;;;;5038631;28;20552;-89
2023/03/15 05:30:04;;;;;;;10.23;4.57;;;;;;;;;;5038735;28;20059;-89
2023/03/15 05:32:33;;;;;;;20.33;9.07;;;;;;;;;;5038976;28;20057;-90
2023/03/15 05:35:01;;;;;;;19.15;9.20;;;;;;;;;;5038800;28;20072;-89
2023/03/15 05:37:28;;;;;;;22.63;8.55;;;;;;;;;;5038620;28;20041;-90
2023/03/15 05:39:57;;;;;;;13.02;6.13;;;;;;;;;;5022430;28;20059;-90
2023/03/15 05:42:25;;;;;;;17.73;5.07;;;;;;;;;;5038643;28;20107;-89
2023/03/15 05:44:52;;;;;;;17.98;5.35;;;;;;;;;;5038502;28;20482;-90
2023/03/15 05:47:20;;;;;;;15.95;5.30;;;;;;;;;;5038314;28;20484;-89
2023/03/15 05:49:47;;;;;;;19.38;5.35;;;;;;;;;;5038727;28;20049;-89
2023/03/15 05:52:15;;;;;;;18.13;5.90;;;;;;;;;;5038687;28;20053;-89
2023/03/15 05:54:42;;;;;;;14.25;7.22;;;;;;;;;;5038238;28;20053;-89
2023/03/15 05:57:09;;;;;;;29.27;10.82;;;;;;;;;;5038296;28;20056;-89
2023/03/15 05:59:36;;;;;;;13.07;5.93;;;;;;;;;;5038266;28;20055;-89
2023/03/15 06:02:04;;;;;;;24.40;9.65;;;;;;;;;;5038182;28;20048;-89
2023/03/15 06:04:31;;;;;;;21.10;8.95;;;;;;;;;;5037926;28;20049;-89
2023/03/15 06:06:58;;;;;;;17.25;5.97;;;;;;;;;;5037602;28;20405;-89
2023/03/15 06:09:25;;;;;;;15.98;4.82;;;;;;;;;;5037833;28;20063;-89
2023/03/15 06:11:53;;;;;;;11.35;4.10;;;;;;;;;;5038117;28;20056;-89
2023/03/15 06:14:20;;;;;;;10.45;3.67;;;;;;;;;;5038270;28;20485;-89
2023/03/15 06:16:47;;;;;;;15.07;4.50;;;;;;;;;;5037789;28;20055;-89
2023/03/15 06:19:14;;;;;;;17.70;8.40;;;;;;;;;;5037483;28;20053;-89
2023/03/15 06:21:41;;;;;;;27.33;13.60;;;;;;;;;;5037626;28;20044;-89
2023/03/15 06:24:08;;;;;;;37.80;15.45;;;;;;;;;;5037477;28;20426;-88
2023/03/15 06:26:36;;;;;;;56.35;28.67;;;;;;;;;;5037683;28;20401;-89
2023/03/15 06:29:03;;;;;;;96.70;43.85;;;;;;;;;;5054012;28;20093;-89
2023/03/15 06:31:30;;;;;;;56.67;28.98;;;;;;;;;;5057541;28;20044;-88
2023/03/15 06:33:57;;;;;;;35.33;18.42;;;;;;;;;;5057395;28;20067;-89
2023/03/15 06:36:25;;;;;;;33.85;16.63;;;;;;;;;;5057483;28;20101;-89
2023/03/15 06:38:53;;;;;;;30.05;15.98;;;;;;;;;;5057578;28;20119;-88
2023/03/15 06:41:20;;;;;;;30.15;13.75;;;;;;;;;;5057116;28;20053;-89
2023/03/15 06:43:47;;;;;;;29.60;13.10;;;;;;;;;;5056497;28;20506;-88
2023/03/15 06:46:15;;;;;;;27.98;11.35;;;;;;;;;;5057025;28;20132;-88
2023/03/15 06:48:42;;;;;;;24.00;6.63;;;;;;;;;;5057243;28;20092;-88
2023/03/15 06:51:09;;;;;;;16.55;5.10;;;;;;;;;;5074769;28;20052;-89
2023/03/15 06:53:36;;;;;;;17.52;3.70;;;;;;;;;;5057218;28;20058;-88
2023/03/15 06:56:04;;;;;;;13.88;3.67;;;;;;;;;;5057180;28;20053;-88
2023/03/15 06:58:31;;;;;;;11.82;3.70;;;;;;;;;;5074397;28;20044;-88
2023/03/15 07:00:58;;;;;;;7.60;3.20;;;;;;;;;;5074233;28;20385;-89
2023/03/15 07:03:26;;;;;;;11.43;3.17;;;;;;;;;;5056622;28;20099;-88
2023/03/15 07:05:53;;;;;;;9.98;2.55;;;;;;;;;;5056656;28;20053;-87
2023/03/15 07:08:22;;;;;;;11.52;2.95;;;;;;;;;;5074421;28;20420;-88
2023/03/15 07:10:49;;;;;;;13.90;2.78;;;;;;;;;;5056568;28;20052;-87
2023/03/15 07:13:17;;;;;;;8.98;2.97;;;;;;;;;;5056432;28;20540;-88
2023/03/15 07:15:51;;;;;;;11.15;2.75;;;;;;;;;;5056629;28;20056;-87
2023/03/15 07:18:18;;;;;;;11.65;2.85;;;;;;;;;;5074072;28;20048;-87
2023/03/15 07:20:46;;;;;;;11.98;3.00;;;;;;;;;;5056576;28;20044;-87
2023/03/15 07:23:13;;;;;;;12.25;2.72;;;;;;;;;;5056365;28;20055;-87
2023/03/15 07:25:40;;;;;;;15.88;3.10;;;;;;;;;;5056253;28;20056;-87
2023/03/15 07:28:21;;;;;;;13.85;3.20;;;;;;;;;;5073467;28;20060;-87
2023/03/15 07:31:14;;;;;;;7.05;2.85;;;;;;;;;;5056306;28;20045;-87
2023/03/15 07:33:42;;;;;;;11.85;3.58;;;;;;;;;;5052408;28;20388;-87
2023/03/15 07:36:09;;;;;;;12.05;3.22;;;;;;;;;;5073494;28;20044;-87
2023/03/15 07:38:36;;;;;;;8.45;3.08;;;;;;;;;;5073290;28;20071;-87
2023/03/15 07:41:05;;;;;;;17.25;4.53;;;;;;;;;;5072901;28;20055;-88
2023/03/15 07:43:32;;;;;;;13.60;4.43;;;;;;;;;;5056166;28;20518;-88
2023/03/15 07:46:00;;;;;;;11.13;4.05;;;;;;;;;;5056171;28;20063;-88
2023/03/15 07:48:30;;;;;;;22.25;8.88;;;;;;;;;;5073863;28;20045;-88
2023/03/15 07:50:57;;;;;;;22.52;5.22;;;;;;;;;;5073767;28;20511;-88
2023/03/15 07:53:25;;;;;;;20.10;12.68;;;;;;;;;;5073489;28;20135;-87
2023/03/15 07:55:53;;;;;;;21.60;7.70;;;;;;;;;;5055934;28;20468;-87
2023/03/15 07:58:20;;;;;;;16.25;6.53;;;;;;;;;;5073280;28;20071;-88
2023/03/15 08:00:47;;;;;;;19.70;8.30;;;;;;;;;;5073505;28;20050;-89
2023/03/15 08:03:15;;;;;;;22.67;11.25;;;;;;;;;;5073147;28;20098;-88
2023/03/15 08:05:42;;;;;;;31.95;12.48;;;;;;;;;;5055537;28;20045;-88
2023/03/15 08:08:09;;;;;;;31.42;11.90;;;;;;;;;;5055741;28;20131;-88
2023/03/15 08:10:36;;;;;;;16.40;8.15;;;;;;;;;;5055987;28;20144;-88
2023/03/15 08:13:03;;;;;;;12.63;6.63;;;;;;;;;;5056030;28;20107;-88
2023/03/15 08:15:31;;;;;;;10.52;5.25;;;;;;;;;;5055580;28;20147;-88
2023/03/15 08:17:58;;;;;;;14.05;6.50;;;;;;;;;;5055703;28;20476;-87
2023/03/15 08:20:26;;;;;;;10.00;3.90;;;;;;;;;;5056271;28;20120;-88
2023/03/15 08:22:56;;;;;;;7.68;3.63;;;;;;;;;;5056170;28;20135;-88
2023/03/15 08:25:23;;;;;;;10.02;3.85;;;;;;;;;;5055533;28;20058;-88
2023/03/15 08:27:51;;;;;;;9.52;2.90;;;;;;;;;;5055627;28;20126;-88
2023/03/15 08:30:18;;;;;;;7.93;2.92;;;;;;;;;;5055147;28;20049;-87
2023/03/15 08:32:46;;;;;;;8.38;3.03;;;;;;;;;;5072932;28;20052;-87
2023/03/15 08:35:15;;;;;;;5.95;2.95;;;;;;;;;;5055300;28;20484;-88
2023/03/15 08:37:46;;;;;;;51.15;25.75;;;;;;;;;;5055166;28;20048;-88
2023/03/15 08:40:15;;;;;;;14.18;7.68;;;;;;;;;;5055887;28;20388;-88
2023/03/15 08:42:42;;;;;;;4.70;4.25;;;;;;;;;;5055594;28;20157;-88
2023/03/15 08:45:10;;;;;;;10.55;4.30;;;;;;;;;;5055641;28;20275;-88
2023/03/15 08:47:38;;;;;;;12.70;4.97;;;;;;;;;;5055499;28;20127;-87
2023/03/15 08:50:06;;;;;;;3.85;2.88;;;;;;;;;;5055408;28;20052;-87
2023/03/15 08:52:33;;;;;;;4.35;2.60;;;;;;;;;;5055266;28;20079;-87
2023/03/15 08:55:01;;;;;;;6.10;3.97;;;;;;;;;;5055112;28;20054;-87
2023/03/15 08:57:28;;;;;;;5.53;3.40;;;;;;;;;;5055061;28;20048;-87
2023/03/15 08:59:56;;;;;;;4.80;3.53;;;;;;;;;;5054740;28;20238;-86
2023/03/15 09:02:23;;;;;;;5.72;3.45;;;;;;;;;;5055295;28;20060;-87
2023/03/15 09:04:51;;;;;;;4.97;3.22;;;;;;;;;;5054843;28;20052;-86
2023/03/15 09:07:21;;;;;;;3.33;3.10;;;;;;;;;;5058446;28;20091;-87
2023/03/15 09:09:48;;;;;;;4.55;2.97;;;;;;;;;;5058752;28;20044;-86
2023/03/15 09:12:16;;;;;;;17.92;11.50;;;;;;;;;;5058879;28;20639;-87
2023/03/15 09:14:44;;;;;;;14.35;10.70;;;;;;;;;;5058589;28;20411;-87
2023/03/15 09:17:11;;;;;;;6.38;5.63;;;;;;;;;;5059007;28;20060;-86
2023/03/15 09:19:38;;;;;;;4.13;2.45;;;;;;;;;;5058409;28;20063;-87
2023/03/15 09:22:06;;;;;;;2.38;1.90;;;;;;;;;;5058736;28;20500;-87
2023/03/15 09:24:49;;;;;;;4.75;2.70;;;;;;;;;;5060487;28;20055;-87
2023/03/15 09:27:18;;;;;;;2.55;1.63;;;;;;;;;;5075802;28;20079;-87
2023/03/15 09:29:45;;;;;;;4.50;1.88;;;;;;;;;;5058352;28;20082;-87
2023/03/15 09:32:12;;;;;;;2.38;1.80;;;;;;;;;;5059361;28;20385;-87
2023/03/15 09:34:40;;;;;;;5.68;1.88;;;;;;;;;;5059912;28;20412;-87
2023/03/15 09:37:09;;;;;;;3.40;1.77;;;;;;;;;;5075999;28;20055;-87
2023/03/15 09:39:36;;;;;;;6.15;2.13;;;;;;;;;;5075501;28;20055;-88
2023/03/15 09:42:07;;;;;;;4.82;1.80;;;;;;;;;;5058062;28;20058;-87
2023/03/15 09:45:13;;;;;;;2.67;2.00;;;;;;;;;;5058047;28;20514;-86
2023/03/15 09:47:49;;;;;;;2.70;1.63;;;;;;;;;;4959154;28;20410;-87
2023/03/15 09:50:22;;;;;;;4.93;2.20;;;;;;;;;;4975103;28;20059;-87
2023/03/15 09:53:09;;;;;;;3.92;2.10;;;;;;;;;;5025815;28;20049;-87
2023/03/15 09:55:36;;;;;;;3.85;1.58;;;;;;;;;;5057734;28;20047;-87
2023/03/15 09:58:15;;;;;;;3.03;1.67;;;;;;;;;;5058146;28;20474;-87
2023/03/15 10:00:48;;;;;;;3.42;1.60;;;;;;;;;;5058252;28;20044;-88
2023/03/15 10:03:21;;;;;;;1.83;1.50;;;;;;;;;;5058177;28;20047;-87
2023/03/15 10:05:52;;;;;;;1.50;1.20;;;;;;;;;;5058171;28;20558;-87
2023/03/15 10:08:19;;;;;;;3.20;1.30;;;;;;;;;;5058089;28;20053;-87
2023/03/15 10:10:55;;;;;;;3.22;1.75;;;;;;;;;;5057834;28;20062;-87
2023/03/15 10:13:22;;;;;;;1.50;1.20;;;;;;;;;;5057172;28;20079;-87
2023/03/15 10:16:12;;;;;;;3.53;1.67;;;;;;;;;;5057707;28;20048;-87
2023/03/15 10:18:58;;;;;;;1.23;1.05;;;;;;;;;;5056648;28;20135;-86
2023/03/15 10:21:31;;;;;;;2.10;1.60;;;;;;;;;;5057749;28;20162;-87
2023/03/15 10:23:59;;;;;;;5.77;1.50;;;;;;;;;;5057811;28;20044;-88
2023/03/15 10:26:32;;;;;;;4.75;1.02;;;;;;;;;;5057403;28;20408;-86
2023/03/15 10:29:01;;;;;;;8.98;3.95;;;;;;;;;;5055345;28;20056;-87
2023/03/15 10:31:33;;;;;;;5.80;2.97;;;;;;;;;;5057148;28;20051;-86
2023/03/15 10:34:10;;;;;;;4.05;1.63;;;;;;;;;;5058684;28;20135;-87
2023/03/15 10:36:43;;;;;;;4.07;1.23;;;;;;;;;;5057480;28;20059;-86
2023/03/15 10:39:11;;;;;;;1.73;1.00;;;;;;;;;;5057051;28;20055;-87
2023/03/15 10:41:43;;;;;;;0.82;0.70;;;;;;;;;;5057245;28;20135;-87
2023/03/15 10:44:12;;;;;;;0.52;0.50;;;;;;;;;;5056995;28;20501;-86
2023/03/15 10:46:39;;;;;;;1.15;0.90;;;;;;;;;;5079159;28;20131;-85
2023/03/15 10:49:16;;;;;;;3.78;2.00;;;;;;;;;;5057418;28;20054;-86
2023/03/15 10:51:45;;;;;;;1.92;1.75;;;;;;;;;;5056973;28;20044;-86
2023/03/15 10:54:19;;;;;;;0.80;0.68;;;;;;;;;;5056818;28;20078;-87
2023/03/15 10:57:02;;;;;;;2.17;1.13;;;;;;;;;;5056812;28;20040;-86
2023/03/15 10:59:30;;;;;;;0.70;0.68;;;;;;;;;;5056205;28;20041;-86
2023/03/15 11:02:15;;;;;;;1.30;0.77;;;;;;;;;;5056609;28;20053;-86
2023/03/15 11:04:43;;;;;;;0.63;0.63;;;;;;;;;;5056515;28;20476;-86
2023/03/15 11:07:12;;;;;;;1.10;0.60;;;;;;;;;;5056629;28;20135;-86
2023/03/15 11:09:40;;;;;;;1.40;0.60;;;;;;;;;;5056561;28;20049;-86
2023/03/15 11:12:09;;;;;;;0.70;0.50;;;;;;;;;;5074167;28;20155;-87
2023/03/15 11:14:39;;;;;;;0.73;0.50;;;;;;;;;;5055572;28;20476;-84
2023/03/15 11:17:07;;;;;;;2.25;0.40;;;;;;;;;;5072647;28;20045;-86
2023/03/15 11:19:38;;;;;;;1.83;0.90;;;;;;;;;;5056380;28;20047;-86
2023/03/15 11:22:10;;;;;;;0.52;0.50;;;;;;;;;;5073755;28;20045;-86
2023/03/15 11:24:37;;;;;;;0.38;0.38;;;;;;;;;;5056117;28;20054;-86
2023/03/15 11:27:13;;;;;;;1.45;0.52;;;;;;;;;;5055965;28;20079;-86
2023/03/15 11:29:42;;;;;;;0.32;0.32;;;;;;;;;;5055603;28;20480;-86
2023/03/15 11:32:12;;;;;;;0.50;0.38;;;;;;;;;;5073829;28;20052;-87
2023/03/15 11:34:44;;;;;;;0.85;0.30;;;;;;;;;;5055972;28;20059;-86
2023/03/15 11:37:15;;;;;;;2.05;1.10;;;;;;;;;;5055702;28;20509;-86
2023/03/15 11:40:00;;;;;;;0.60;0.50;;;;;;;;;;5055678;28;20056;-86
2023/03/15 11:42:49;;;;;;;1.38;0.73;;;;;;;;;;5057554;28;20044;-86
2023/03/15 11:45:24;;;;;;;1.30;0.40;;;;;;;;;;5073367;28;20484;-87
2023/03/15 11:47:53;;;;;;;0.47;0.47;;;;;;;;;;5056217;28;20082;-86
2023/03/15 11:50:20;;;;;;;0.40;0.40;;;;;;;;;;5073199;28;20071;-86
2023/03/15 11:52:49;;;;;;;0.30;0.30;;;;;;;;;;5073462;28;20051;-86
2023/03/15 11:55:18;;;;;;;0.50;0.40;;;;;;;;;;5055930;28;20504;-86
2023/03/15 11:57:46;;;;;;;1.50;0.50;;;;;;;;;;5055808;28;20132;-87
2023/03/15 12:00:20;;;;;;;0.57;0.50;;;;;;;;;;5064053;28;20060;-86
2023/03/15 12:02:53;;;;;;;0.50;0.40;;;;;;;;;;5056151;28;20059;-86
2023/03/15 12:05:38;;;;;;;1.85;0.45;;;;;;;;;;5055666;28;20091;-86
2023/03/15 12:08:26;;;;;;;0.30;0.30;;;;;;;;;;5055830;28;20052;-86
2023/03/15 12:10:53;;;;;;;0.90;0.30;;;;;;;;;;5039455;28;20063;-86
2023/03/15 12:13:28;;;;;;;0.50;0.50;;;;;;;;;;5055597;28;20059;-86
2023/03/15 12:15:56;;;;;;;1.90;0.60;;;;;;;;;;5055528;28;20053;-86
2023/03/15 12:18:36;;;;;;;0.30;0.30;;;;;;;;;;5055227;28;20515;-86
2023/03/15 12:21:09;;;;;;;0.43;0.43;;;;;;;;;;5072935;28;20424;-86
2023/03/15 12:23:41;;;;;;;0.52;0.52;;;;;;;;;;5072683;28;20558;-85
2023/03/15 12:26:11;;;;;;;0.63;0.50;;;;;;;;;;5055190;28;20048;-86
2023/03/15 12:28:40;;;;;;;0.70;0.40;;;;;;;;;;5055479;28;20083;-86
2023/03/15 12:31:08;;;;;;;0.32;0.32;;;;;;;;;;5073103;28;20052;-86
2023/03/15 12:33:46;;;;;;;0.57;0.57;;;;;;;;;;5055358;28;20070;-86
2023/03/15 12:36:40;;;;;;;6.40;4.15;;;;;;;;;;5055212;28;20059;-86
2023/03/15 12:39:13;;;;;;;1.40;1.30;;;;;;;;;;5069095;28;20493;-85
2023/03/15 12:41:42;;;;;;;1.52;1.40;;;;;;;;;;5058479;28;20045;-86
2023/03/15 12:44:17;;;;;;;20.88;15.05;;;;;;;;;;5059305;28;20048;-86
2023/03/15 12:46:44;;;;;;;2.13;2.03;;;;;;;;;;5076405;28;20048;-86
2023/03/15 12:49:12;;;;;;;2.00;1.60;;;;;;;;;;5076795;28;20509;-85
2023/03/15 12:51:58;;;;;;;2.60;2.40;;;;;;;;;;5058986;28;20048;-85
2023/03/15 12:54:30;;;;;;;51.92;47.10;;;;;;;;;;5058858;28;20052;-85
2023/03/15 12:56:59;;;;;;;6.50;6.00;;;;;;;;;;5076433;28;20044;-86
2023/03/15 12:59:29;;;;;;;4.72;3.70;;;;;;;;;;5058687;28;20194;-84
2023/03/15 13:01:58;;;;;;;3.50;3.20;;;;;;;;;;5058145;28;20044;-86
2023/03/15 13:04:26;;;;;;;5.32;4.28;;;;;;;;;;5076574;28;20439;-86
2023/03/15 13:07:13;;;;;;;4.20;3.00;;;;;;;;;;5076183;28;20062;-86
2023/03/15 13:09:53;;;;;;;7.20;2.90;;;;;;;;;;5058427;28;20049;-86
2023/03/15 13:12:20;;;;;;;3.22;2.97;;;;;;;;;;5076507;28;20493;-86
2023/03/15 13:15:00;;;;;;;3.20;2.92;;;;;;;;;;5080790;28;20055;-85
2023/03/15 13:17:34;;;;;;;2.83;2.63;;;;;;;;;;5076113;28;20052;-85
2023/03/15 13:20:27;;;;;;;5.00;3.20;;;;;;;;;;5058402;28;20052;-86
2023/03/15 13:22:57;;;;;;;4.78;3.40;;;;;;;;;;5076000;28;20059;-86
2023/03/15 13:25:28;;;;;;;3.03;2.72;;;;;;;;;;5075696;28;20055;-86
2023/03/15 13:27:58;;;;;;;3.40;2.47;;;;;;;;;;5075913;28;20484;-86
2023/03/15 13:30:33;;;;;;;3.25;2.35;;;;;;;;;;5075371;28;20044;-85
2023/03/15 13:33:06;;;;;;;2.38;2.17;;;;;;;;;;5075947;28;20088;-86
2023/03/15 13:35:40;;;;;;;4.28;3.88;;;;;;;;;;5075560;28;20128;-86
2023/03/15 13:38:20;;;;;;;2.78;2.45;;;;;;;;;;5075562;28;20386;-85
2023/03/15 13:40:47;;;;;;;3.42;2.25;;;;;;;;;;5057412;28;20510;-86
2023/03/15 13:43:14;;;;;;;4.05;2.70;;;;;;;;;;5075490;28;20060;-86
2023/03/15 13:45:42;;;;;;;3.35;2.90;;;;;;;;;;5075402;28;20492;-86
2023/03/15 13:48:09;;;;;;;4.93;2.88;;;;;;;;;;5057669;28;20051;-85
2023/03/15 13:50:39;;;;;;;12.98;2.10;;;;;;;;;;5058144;28;20078;-91
2023/03/15 13:53:06;;;;;;;4.22;2.20;;;;;;;;;;5057849;28;20430;-87
2023/03/15 13:55:35;;;;;;;2.13;1.00;;;;;;;;;;5057276;28;20135;-87
2023/03/15 13:58:07;;;;;;;1.00;1.00;;;;;;;;;;5057233;28;20045;-87
2023/03/15 14:00:35;;;;;;;1.27;0.80;;;;;;;;;;5057696;28;20060;-87
2023/03/15 14:03:05;;;;;;;2.92;1.02;;;;;;;;;;5058228;28;20424;-87
2023/03/15 14:05:35;;;;;;;2.95;1.17;;;;;;;;;;5075343;28;20052;-87
2023/03/15 14:08:03;;;;;;;1.92;0.63;;;;;;;;;;5057852;28;20484;-87
2023/03/15 14:10:32;;;;;;;3.10;1.08;;;;;;;;;;5058065;28;20071;-87
2023/03/15 14:13:16;;;;;;;1.20;0.80;;;;;;;;;;5075631;28;20059;-87
2023/03/15 14:15:44;;;;;;;0.70;0.70;;;;;;;;;;5075069;28;20044;-86
2023/03/15 14:18:11;;;;;;;0.88;0.82;;;;;;;;;;5074893;28;20048;-86
2023/03/15 14:20:43;;;;;;;0.50;0.50;;;;;;;;;;5074877;28;20255;-87
2023/03/15 14:23:17;;;;;;;1.88;0.93;;;;;;;;;;5074936;28;20048;-87
2023/03/15 14:25:55;;;;;;;6.45;0.80;;;;;;;;;;5058221;28;20084;-87
2023/03/15 14:28:23;;;;;;;0.95;0.52;;;;;;;;;;5067120;28;20132;-86
2023/03/15 14:30:52;;;;;;;2.85;2.13;;;;;;;;;;5057343;28;20057;-85
2023/03/15 14:33:26;;;;;;;5.53;1.38;;;;;;;;;;5074736;28;20110;-86
2023/03/15 14:35:53;;;;;;;;;;;;;;;;;;5057418;28;20044;-85
2023/03/15 14:38:22;;;;;;;1.13;0.73;;;;;;;;;;5056786;28;19978;-86
2023/03/15 14:40:50;;;;;;;3.20;0.60;;;;;;;;;;5056888;28;20131;-86
2023/03/15 14:43:17;;;;;;;1.08;0.60;;;;;;;;;;5056959;28;20447;-86
2023/03/15 14:45:46;;;;;;;1.95;0.90;;;;;;;;;;5056493;28;20052;-86
2023/03/15 14:48:33;;;;;;;2.83;1.20;;;;;;;;;;5056632;28;20045;-86
2023/03/15 14:51:00;;;;;;;1.50;1.30;;;;;;;;;;5074329;28;20078;-85